sensor_id;sensor_type;location;lat;lon;timestamp;P1;durP1;ratioP1;P2;durP2;ratioP2
5414;SDS011;2730;51.512;7.504;2023-12-20T00:02:14;28.67;;;10.73;;
5414;SDS011;2730;51.512;7.504;2023-12-20T00:04:40;21.52;;;9.18;;
5414;SDS011;2730;51.512;7.504;2023-12-20T00:07:08;26.92;;;10.40;;
5414;SDS011;2730;51.512;7.504;2023-12-20T00:09:34;21.30;;;9.85;;
5414;SDS011;2730;51.512;7.504;2023-12-20T00:12:01;25.10;;;10.52;;
5414;SDS011;2730;51.512;7.504;2023-12-20T00:14:30;32.33;;;12.10;;
5414;SDS011;2730;51.512;7.504;2023-12-20T00:16:56;25.98;;;11.05;;
5414;SDS011;2730;51.512;7.504;2023-12-20T00:19:23;22.65;;;10.05;;
5414;SDS011;2730;51.512;7.504;2023-12-20T00:21:50;22.77;;;9.07;;
5414;SDS011;2730;51.512;7.504;2023-12-20T00:24:17;27.40;;;11.13;;
5414;SDS011;2730;51.512;7.504;2023-12-20T00:26:44;27.10;;;10.52;;
5414;SDS011;2730;51.512;7.504;2023-12-20T00:29:11;24.77;;;9.80;;
5414;SDS011;2730;51.512;7.504;2023-12-20T00:31:40;24.55;;;10.73;;
5414;SDS011;2730;51.512;7.504;2023-12-20T00:34:06;22.10;;;9.23;;
5414;SDS011;2730;51.512;7.504;2023-12-20T00:36:34;28.90;;;10.80;;
5414;SDS011;2730;51.512;7.504;2023-12-20T00:39:02;29.45;;;10.77;;
5414;SDS011;2730;51.512;7.504;2023-12-20T00:41:32;23.10;;;9.65;;
5414;SDS011;2730;51.512;7.504;2023-12-20T00:43:58;29.27;;;10.55;;
5414;SDS011;2730;51.512;7.504;2023-12-20T00:46:26;25.00;;;11.13;;
5414;SDS011;2730;51.512;7.504;2023-12-20T00:48:54;22.40;;;10.05;;
5414;SDS011;2730;51.512;7.504;2023-12-20T00:51:22;24.10;;;9.65;;
5414;SDS011;2730;51.512;7.504;2023-12-20T00:53:50;20.88;;;9.00;;
5414;SDS011;2730;51.512;7.504;2023-12-20T00:56:20;21.75;;;8.48;;
5414;SDS011;2730;51.512;7.504;2023-12-20T00:58:47;19.48;;;8.23;;
5414;SDS011;2730;51.512;7.504;2023-12-20T01:01:14;19.42;;;7.22;;
5414;SDS011;2730;51.512;7.504;2023-12-20T01:03:43;17.80;;;7.05;;
5414;SDS011;2730;51.512;7.504;2023-12-20T01:06:11;12.65;;;5.70;;
5414;SDS011;2730;51.512;7.504;2023-12-20T01:08:38;7.55;;;4.72;;
5414;SDS011;2730;51.512;7.504;2023-12-20T01:11:05;8.98;;;5.40;;
5414;SDS011;2730;51.512;7.504;2023-12-20T01:13:34;14.93;;;7.40;;
5414;SDS011;2730;51.512;7.504;2023-12-20T01:16:01;13.73;;;6.35;;
5414;SDS011;2730;51.512;7.504;2023-12-20T01:18:29;12.40;;;5.97;;
5414;SDS011;2730;51.512;7.504;2023-12-20T01:21:00;18.85;;;5.18;;
5414;SDS011;2730;51.512;7.504;2023-12-20T01:23:29;11.55;;;4.75;;
5414;SDS011;2730;51.512;7.504;2023-12-20T01:25:56;12.90;;;4.50;;
5414;SDS011;2730;51.512;7.504;2023-12-20T01:28:24;8.52;;;3.67;;
5414;SDS011;2730;51.512;7.504;2023-12-20T01:30:53;9.70;;;4.43;;
5414;SDS011;2730;51.512;7.504;2023-12-20T01:33:19;10.32;;;3.70;;
5414;SDS011;2730;51.512;7.504;2023-12-20T01:35:46;9.32;;;4.50;;
5414;SDS011;2730;51.512;7.504;2023-12-20T01:38:13;5.47;;;3.60;;
5414;SDS011;2730;51.512;7.504;2023-12-20T01:40:45;9.52;;;3.30;;
5414;SDS011;2730;51.512;7.504;2023-12-20T01:43:11;6.00;;;4.00;;
5414;SDS011;2730;51.512;7.504;2023-12-20T01:45:40;10.63;;;4.25;;
5414;SDS011;2730;51.512;7.504;2023-12-20T01:48:07;8.85;;;3.55;;
5414;SDS011;2730;51.512;7.504;2023-12-20T01:50:36;5.40;;;3.70;;
5414;SDS011;2730;51.512;7.504;2023-12-20T01:53:05;11.20;;;3.80;;
5414;SDS011;2730;51.512;7.504;2023-12-20T01:55:36;11.23;;;4.28;;
5414;SDS011;2730;51.512;7.504;2023-12-20T01:58:07;7.55;;;4.13;;
5414;SDS011;2730;51.512;7.504;2023-12-20T02:00:36;8.73;;;2.92;;
5414;SDS011;2730;51.512;7.504;2023-12-20T02:03:03;8.00;;;3.05;;
5414;SDS011;2730;51.512;7.504;2023-12-20T02:05:31;8.57;;;3.70;;
5414;SDS011;2730;51.512;7.504;2023-12-20T02:07:58;8.25;;;3.92;;
5414;SDS011;2730;51.512;7.504;2023-12-20T02:10:25;12.30;;;5.35;;
5414;SDS011;2730;51.512;7.504;2023-12-20T02:12:52;8.68;;;3.55;;
5414;SDS011;2730;51.512;7.504;2023-12-20T02:15:20;6.82;;;3.20;;
5414;SDS011;2730;51.512;7.504;2023-12-20T02:17:48;8.55;;;3.75;;
5414;SDS011;2730;51.512;7.504;2023-12-20T02:20:15;6.18;;;3.10;;
5414;SDS011;2730;51.512;7.504;2023-12-20T02:22:43;13.10;;;4.85;;
5414;SDS011;2730;51.512;7.504;2023-12-20T02:25:11;10.60;;;3.20;;
5414;SDS011;2730;51.512;7.504;2023-12-20T02:27:38;11.82;;;3.50;;
5414;SDS011;2730;51.512;7.504;2023-12-20T02:30:06;9.68;;;5.45;;
5414;SDS011;2730;51.512;7.504;2023-12-20T02:32:34;6.20;;;2.92;;
5414;SDS011;2730;51.512;7.504;2023-12-20T02:35:02;9.02;;;4.38;;
5414;SDS011;2730;51.512;7.504;2023-12-20T02:37:29;6.28;;;3.75;;
5414;SDS011;2730;51.512;7.504;2023-12-20T02:40:00;8.75;;;4.20;;
5414;SDS011;2730;51.512;7.504;2023-12-20T02:42:29;10.70;;;3.47;;
5414;SDS011;2730;51.512;7.504;2023-12-20T02:44:57;10.40;;;4.30;;
5414;SDS011;2730;51.512;7.504;2023-12-20T02:47:24;7.32;;;2.95;;
5414;SDS011;2730;51.512;7.504;2023-12-20T02:49:55;4.72;;;2.65;;
5414;SDS011;2730;51.512;7.504;2023-12-20T02:52:22;15.25;;;3.33;;
5414;SDS011;2730;51.512;7.504;2023-12-20T02:54:50;8.20;;;3.45;;
5414;SDS011;2730;51.512;7.504;2023-12-20T02:57:18;7.97;;;3.15;;
5414;SDS011;2730;51.512;7.504;2023-12-20T02:59:45;6.57;;;3.40;;
5414;SDS011;2730;51.512;7.504;2023-12-20T03:02:12;8.93;;;4.85;;
5414;SDS011;2730;51.512;7.504;2023-12-20T03:04:39;6.90;;;2.83;;
5414;SDS011;2730;51.512;7.504;2023-12-20T03:07:06;14.15;;;2.78;;
5414;SDS011;2730;51.512;7.504;2023-12-20T03:09:34;6.95;;;2.42;;
5414;SDS011;2730;51.512;7.504;2023-12-20T03:12:01;7.28;;;2.40;;
5414;SDS011;2730;51.512;7.504;2023-12-20T03:14:30;7.70;;;3.13;;
5414;SDS011;2730;51.512;7.504;2023-12-20T03:16:58;7.18;;;3.78;;
5414;SDS011;2730;51.512;7.504;2023-12-20T03:19:26;8.77;;;3.90;;
5414;SDS011;2730;51.512;7.504;2023-12-20T03:21:54;7.10;;;3.60;;
5414;SDS011;2730;51.512;7.504;2023-12-20T03:24:20;11.13;;;3.50;;
5414;SDS011;2730;51.512;7.504;2023-12-20T03:26:47;7.20;;;3.13;;
5414;SDS011;2730;51.512;7.504;2023-12-20T03:29:14;12.38;;;3.40;;
5414;SDS011;2730;51.512;7.504;2023-12-20T03:31:42;3.72;;;2.65;;
5414;SDS011;2730;51.512;7.504;2023-12-20T03:34:09;9.48;;;3.60;;
5414;SDS011;2730;51.512;7.504;2023-12-20T03:36:37;10.13;;;4.28;;
5414;SDS011;2730;51.512;7.504;2023-12-20T03:39:08;9.48;;;4.03;;
5414;SDS011;2730;51.512;7.504;2023-12-20T03:41:36;6.68;;;3.75;;
5414;SDS011;2730;51.512;7.504;2023-12-20T03:44:03;8.50;;;4.75;;
5414;SDS011;2730;51.512;7.504;2023-12-20T03:46:30;20.25;;;4.45;;
5414;SDS011;2730;51.512;7.504;2023-12-20T03:48:59;25.55;;;5.95;;
5414;SDS011;2730;51.512;7.504;2023-12-20T03:51:26;15.10;;;3.28;;
5414;SDS011;2730;51.512;7.504;2023-12-20T03:53:53;12.90;;;3.58;;
5414;SDS011;2730;51.512;7.504;2023-12-20T03:56:20;10.20;;;4.22;;
5414;SDS011;2730;51.512;7.504;2023-12-20T03:58:50;12.20;;;4.88;;
5414;SDS011;2730;51.512;7.504;2023-12-20T04:01:17;8.75;;;3.50;;
5414;SDS011;2730;51.512;7.504;2023-12-20T04:03:46;11.27;;;3.72;;
5414;SDS011;2730;51.512;7.504;2023-12-20T04:06:17;7.53;;;4.90;;
5414;SDS011;2730;51.512;7.504;2023-12-20T04:08:44;10.98;;;4.70;;
5414;SDS011;2730;51.512;7.504;2023-12-20T04:11:12;11.48;;;5.00;;
5414;SDS011;2730;51.512;7.504;2023-12-20T04:13:39;11.02;;;4.70;;
5414;SDS011;2730;51.512;7.504;2023-12-20T04:16:07;9.13;;;4.88;;
5414;SDS011;2730;51.512;7.504;2023-12-20T04:18:33;16.95;;;5.35;;
5414;SDS011;2730;51.512;7.504;2023-12-20T04:21:01;13.43;;;4.57;;
5414;SDS011;2730;51.512;7.504;2023-12-20T04:23:30;9.32;;;5.10;;
5414;SDS011;2730;51.512;7.504;2023-12-20T04:25:58;11.90;;;3.83;;
5414;SDS011;2730;51.512;7.504;2023-12-20T04:28:25;13.32;;;3.70;;
5414;SDS011;2730;51.512;7.504;2023-12-20T04:30:52;12.05;;;4.22;;
5414;SDS011;2730;51.512;7.504;2023-12-20T04:33:18;7.50;;;3.95;;
5414;SDS011;2730;51.512;7.504;2023-12-20T04:35:46;13.27;;;4.72;;
5414;SDS011;2730;51.512;7.504;2023-12-20T04:38:13;13.68;;;4.53;;
5414;SDS011;2730;51.512;7.504;2023-12-20T04:40:44;7.00;;;3.53;;
5414;SDS011;2730;51.512;7.504;2023-12-20T04:43:11;6.65;;;4.05;;
5414;SDS011;2730;51.512;7.504;2023-12-20T04:45:38;9.80;;;4.00;;
5414;SDS011;2730;51.512;7.504;2023-12-20T04:48:05;12.75;;;4.88;;
5414;SDS011;2730;51.512;7.504;2023-12-20T04:50:32;10.88;;;4.25;;
5414;SDS011;2730;51.512;7.504;2023-12-20T04:52:59;22.08;;;5.50;;
5414;SDS011;2730;51.512;7.504;2023-12-20T04:55:26;9.63;;;4.55;;
5414;SDS011;2730;51.512;7.504;2023-12-20T04:57:55;7.03;;;4.55;;
5414;SDS011;2730;51.512;7.504;2023-12-20T05:00:23;9.82;;;3.90;;
5414;SDS011;2730;51.512;7.504;2023-12-20T05:02:51;13.43;;;4.38;;
5414;SDS011;2730;51.512;7.504;2023-12-20T05:05:18;9.13;;;4.50;;
5414;SDS011;2730;51.512;7.504;2023-12-20T05:07:45;10.13;;;4.38;;
5414;SDS011;2730;51.512;7.504;2023-12-20T05:10:11;10.63;;;4.43;;
5414;SDS011;2730;51.512;7.504;2023-12-20T05:12:38;16.38;;;4.57;;
5414;SDS011;2730;51.512;7.504;2023-12-20T05:15:08;10.40;;;4.38;;
5414;SDS011;2730;51.512;7.504;2023-12-20T05:17:35;14.25;;;4.40;;
5414;SDS011;2730;51.512;7.504;2023-12-20T05:20:02;14.98;;;4.95;;
5414;SDS011;2730;51.512;7.504;2023-12-20T05:22:29;8.43;;;4.03;;
5414;SDS011;2730;51.512;7.504;2023-12-20T05:24:58;11.38;;;5.28;;
5414;SDS011;2730;51.512;7.504;2023-12-20T05:27:25;15.52;;;4.57;;
5414;SDS011;2730;51.512;7.504;2023-12-20T05:29:51;12.65;;;4.18;;
5414;SDS011;2730;51.512;7.504;2023-12-20T05:32:26;10.73;;;4.85;;
5414;SDS011;2730;51.512;7.504;2023-12-20T05:34:53;8.07;;;3.97;;
5414;SDS011;2730;51.512;7.504;2023-12-20T05:37:19;21.80;;;5.47;;
5414;SDS011;2730;51.512;7.504;2023-12-20T05:39:46;13.50;;;4.20;;
5414;SDS011;2730;51.512;7.504;2023-12-20T05:42:13;12.40;;;5.28;;
5414;SDS011;2730;51.512;7.504;2023-12-20T05:44:40;22.77;;;4.80;;
5414;SDS011;2730;51.512;7.504;2023-12-20T05:47:07;9.70;;;4.57;;
5414;SDS011;2730;51.512;7.504;2023-12-20T05:49:35;15.27;;;6.05;;
5414;SDS011;2730;51.512;7.504;2023-12-20T05:52:02;5.00;;;3.47;;
5414;SDS011;2730;51.512;7.504;2023-12-20T05:54:29;17.48;;;5.97;;
5414;SDS011;2730;51.512;7.504;2023-12-20T05:56:57;20.50;;;5.68;;
5414;SDS011;2730;51.512;7.504;2023-12-20T05:59:23;13.88;;;3.65;;
5414;SDS011;2730;51.512;7.504;2023-12-20T06:01:52;14.82;;;3.38;;
5414;SDS011;2730;51.512;7.504;2023-12-20T06:04:19;14.60;;;4.40;;
5414;SDS011;2730;51.512;7.504;2023-12-20T06:06:50;18.05;;;4.53;;
5414;SDS011;2730;51.512;7.504;2023-12-20T06:09:17;23.90;;;4.20;;
5414;SDS011;2730;51.512;7.504;2023-12-20T06:11:44;16.98;;;5.15;;
5414;SDS011;2730;51.512;7.504;2023-12-20T06:14:11;14.48;;;4.13;;
5414;SDS011;2730;51.512;7.504;2023-12-20T06:16:39;5.88;;;4.40;;
5414;SDS011;2730;51.512;7.504;2023-12-20T06:19:07;10.77;;;4.05;;
5414;SDS011;2730;51.512;7.504;2023-12-20T06:21:34;10.57;;;4.07;;
5414;SDS011;2730;51.512;7.504;2023-12-20T06:24:02;16.55;;;4.85;;
5414;SDS011;2730;51.512;7.504;2023-12-20T06:26:31;8.23;;;4.60;;
5414;SDS011;2730;51.512;7.504;2023-12-20T06:28:58;14.57;;;5.07;;
5414;SDS011;2730;51.512;7.504;2023-12-20T06:31:25;7.38;;;4.30;;
5414;SDS011;2730;51.512;7.504;2023-12-20T06:33:52;19.35;;;5.28;;
5414;SDS011;2730;51.512;7.504;2023-12-20T06:36:22;20.13;;;5.32;;
5414;SDS011;2730;51.512;7.504;2023-12-20T06:38:49;15.27;;;4.65;;
5414;SDS011;2730;51.512;7.504;2023-12-20T06:41:18;10.88;;;4.85;;
5414;SDS011;2730;51.512;7.504;2023-12-20T06:43:46;14.07;;;5.93;;
5414;SDS011;2730;51.512;7.504;2023-12-20T06:46:13;9.75;;;4.75;;
5414;SDS011;2730;51.512;7.504;2023-12-20T06:48:43;14.85;;;4.97;;
5414;SDS011;2730;51.512;7.504;2023-12-20T06:51:11;18.90;;;6.50;;
5414;SDS011;2730;51.512;7.504;2023-12-20T06:53:41;19.15;;;6.05;;
5414;SDS011;2730;51.512;7.504;2023-12-20T06:56:08;15.23;;;5.13;;
5414;SDS011;2730;51.512;7.504;2023-12-20T06:58:38;18.17;;;5.65;;
5414;SDS011;2730;51.512;7.504;2023-12-20T07:01:04;11.20;;;6.40;;
5414;SDS011;2730;51.512;7.504;2023-12-20T07:03:39;11.77;;;5.43;;
5414;SDS011;2730;51.512;7.504;2023-12-20T07:06:06;17.83;;;5.38;;
5414;SDS011;2730;51.512;7.504;2023-12-20T07:08:34;17.88;;;5.30;;
5414;SDS011;2730;51.512;7.504;2023-12-20T07:11:00;8.80;;;4.60;;
5414;SDS011;2730;51.512;7.504;2023-12-20T07:13:29;13.73;;;5.15;;
5414;SDS011;2730;51.512;7.504;2023-12-20T07:15:59;17.38;;;5.05;;
5414;SDS011;2730;51.512;7.504;2023-12-20T07:18:26;11.50;;;4.90;;
5414;SDS011;2730;51.512;7.504;2023-12-20T07:20:55;15.73;;;5.25;;
5414;SDS011;2730;51.512;7.504;2023-12-20T07:23:22;14.02;;;5.45;;
5414;SDS011;2730;51.512;7.504;2023-12-20T07:25:48;6.05;;;3.90;;
5414;SDS011;2730;51.512;7.504;2023-12-20T07:28:15;17.30;;;5.30;;
5414;SDS011;2730;51.512;7.504;2023-12-20T07:30:42;11.57;;;4.05;;
5414;SDS011;2730;51.512;7.504;2023-12-20T07:33:11;15.02;;;4.70;;
5414;SDS011;2730;51.512;7.504;2023-12-20T07:35:38;22.70;;;4.40;;
5414;SDS011;2730;51.512;7.504;2023-12-20T07:38:06;10.55;;;4.82;;
5414;SDS011;2730;51.512;7.504;2023-12-20T07:40:35;11.90;;;3.97;;
5414;SDS011;2730;51.512;7.504;2023-12-20T07:43:02;10.50;;;4.07;;
5414;SDS011;2730;51.512;7.504;2023-12-20T07:45:29;5.30;;;4.07;;
5414;SDS011;2730;51.512;7.504;2023-12-20T07:47:56;8.80;;;4.82;;
5414;SDS011;2730;51.512;7.504;2023-12-20T07:50:24;8.48;;;4.65;;
5414;SDS011;2730;51.512;7.504;2023-12-20T07:52:52;13.98;;;4.43;;
5414;SDS011;2730;51.512;7.504;2023-12-20T07:55:19;5.35;;;4.13;;
5414;SDS011;2730;51.512;7.504;2023-12-20T07:57:46;9.50;;;4.88;;
5414;SDS011;2730;51.512;7.504;2023-12-20T08:00:13;12.45;;;4.03;;
5414;SDS011;2730;51.512;7.504;2023-12-20T08:02:40;14.85;;;5.90;;
5414;SDS011;2730;51.512;7.504;2023-12-20T08:05:08;9.73;;;3.97;;
5414;SDS011;2730;51.512;7.504;2023-12-20T08:07:37;15.57;;;4.13;;
5414;SDS011;2730;51.512;7.504;2023-12-20T08:10:04;19.20;;;6.85;;
5414;SDS011;2730;51.512;7.504;2023-12-20T08:12:31;9.52;;;5.00;;
5414;SDS011;2730;51.512;7.504;2023-12-20T08:14:58;12.55;;;4.60;;
5414;SDS011;2730;51.512;7.504;2023-12-20T08:17:25;9.40;;;4.25;;
5414;SDS011;2730;51.512;7.504;2023-12-20T08:19:53;8.38;;;3.92;;
5414;SDS011;2730;51.512;7.504;2023-12-20T08:22:20;14.00;;;4.43;;
5414;SDS011;2730;51.512;7.504;2023-12-20T08:24:50;6.90;;;3.28;;
5414;SDS011;2730;51.512;7.504;2023-12-20T08:27:17;9.60;;;3.80;;
5414;SDS011;2730;51.512;7.504;2023-12-20T08:29:44;18.60;;;4.85;;
5414;SDS011;2730;51.512;7.504;2023-12-20T08:32:11;8.52;;;3.72;;
5414;SDS011;2730;51.512;7.504;2023-12-20T08:34:38;6.97;;;3.55;;
5414;SDS011;2730;51.512;7.504;2023-12-20T08:37:04;15.93;;;4.07;;
5414;SDS011;2730;51.512;7.504;2023-12-20T08:39:31;7.40;;;3.72;;
5414;SDS011;2730;51.512;7.504;2023-12-20T08:42:00;6.60;;;4.03;;
5414;SDS011;2730;51.512;7.504;2023-12-20T08:44:27;15.07;;;4.07;;
5414;SDS011;2730;51.512;7.504;2023-12-20T08:46:53;11.73;;;4.85;;
5414;SDS011;2730;51.512;7.504;2023-12-20T08:49:22;10.43;;;4.63;;
5414;SDS011;2730;51.512;7.504;2023-12-20T08:51:51;4.80;;;4.20;;
5414;SDS011;2730;51.512;7.504;2023-12-20T08:54:17;5.75;;;3.88;;
5414;SDS011;2730;51.512;7.504;2023-12-20T08:56:44;14.90;;;3.75;;
5414;SDS011;2730;51.512;7.504;2023-12-20T08:59:12;11.77;;;4.90;;
5414;SDS011;2730;51.512;7.504;2023-12-20T09:01:39;14.20;;;4.95;;
5414;SDS011;2730;51.512;7.504;2023-12-20T09:04:06;8.30;;;3.20;;
5414;SDS011;2730;51.512;7.504;2023-12-20T09:06:34;27.55;;;3.75;;
5414;SDS011;2730;51.512;7.504;2023-12-20T09:09:01;7.50;;;4.50;;
5414;SDS011;2730;51.512;7.504;2023-12-20T09:11:28;6.38;;;3.25;;
5414;SDS011;2730;51.512;7.504;2023-12-20T09:13:55;10.23;;;4.03;;
5414;SDS011;2730;51.512;7.504;2023-12-20T09:16:23;15.52;;;3.70;;
5414;SDS011;2730;51.512;7.504;2023-12-20T09:18:52;9.75;;;4.18;;
5414;SDS011;2730;51.512;7.504;2023-12-20T09:21:19;4.43;;;3.38;;
5414;SDS011;2730;51.512;7.504;2023-12-20T09:23:45;7.72;;;3.65;;
5414;SDS011;2730;51.512;7.504;2023-12-20T09:26:12;8.73;;;2.92;;
5414;SDS011;2730;51.512;7.504;2023-12-20T09:28:39;7.20;;;3.20;;
5414;SDS011;2730;51.512;7.504;2023-12-20T09:31:06;13.07;;;4.30;;
5414;SDS011;2730;51.512;7.504;2023-12-20T09:33:34;9.38;;;3.05;;
5414;SDS011;2730;51.512;7.504;2023-12-20T09:36:01;12.95;;;3.25;;
5414;SDS011;2730;51.512;7.504;2023-12-20T09:38:29;4.93;;;2.30;;
5414;SDS011;2730;51.512;7.504;2023-12-20T09:40:57;21.23;;;4.65;;
5414;SDS011;2730;51.512;7.504;2023-12-20T09:43:27;12.80;;;3.03;;
5414;SDS011;2730;51.512;7.504;2023-12-20T09:45:55;4.88;;;3.05;;
5414;SDS011;2730;51.512;7.504;2023-12-20T09:48:27;10.07;;;5.72;;
5414;SDS011;2730;51.512;7.504;2023-12-20T09:50:57;4.93;;;4.35;;
5414;SDS011;2730;51.512;7.504;2023-12-20T09:53:24;6.85;;;2.78;;
5414;SDS011;2730;51.512;7.504;2023-12-20T09:55:55;9.57;;;2.90;;
5414;SDS011;2730;51.512;7.504;2023-12-20T09:58:24;9.30;;;3.88;;
5414;SDS011;2730;51.512;7.504;2023-12-20T10:00:51;8.82;;;3.60;;
5414;SDS011;2730;51.512;7.504;2023-12-20T10:03:19;10.90;;;3.70;;
5414;SDS011;2730;51.512;7.504;2023-12-20T10:05:51;14.85;;;3.88;;
5414;SDS011;2730;51.512;7.504;2023-12-20T10:08:22;8.38;;;3.17;;
5414;SDS011;2730;51.512;7.504;2023-12-20T10:10:48;5.45;;;2.70;;
5414;SDS011;2730;51.512;7.504;2023-12-20T10:13:15;5.10;;;3.15;;
5414;SDS011;2730;51.512;7.504;2023-12-20T10:15:42;5.78;;;3.45;;
5414;SDS011;2730;51.512;7.504;2023-12-20T10:18:09;12.93;;;2.95;;
5414;SDS011;2730;51.512;7.504;2023-12-20T10:20:39;8.98;;;2.72;;
5414;SDS011;2730;51.512;7.504;2023-12-20T10:23:07;3.25;;;2.45;;
5414;SDS011;2730;51.512;7.504;2023-12-20T10:25:35;6.22;;;3.20;;
5414;SDS011;2730;51.512;7.504;2023-12-20T10:28:09;4.95;;;3.30;;
5414;SDS011;2730;51.512;7.504;2023-12-20T10:30:36;7.72;;;3.78;;
5414;SDS011;2730;51.512;7.504;2023-12-20T10:33:05;6.35;;;2.80;;
5414;SDS011;2730;51.512;7.504;2023-12-20T10:35:32;4.50;;;2.10;;
5414;SDS011;2730;51.512;7.504;2023-12-20T10:38:00;14.30;;;3.15;;
5414;SDS011;2730;51.512;7.504;2023-12-20T10:40:30;15.38;;;3.72;;
5414;SDS011;2730;51.512;7.504;2023-12-20T10:42:59;3.88;;;2.67;;
5414;SDS011;2730;51.512;7.504;2023-12-20T10:45:29;4.93;;;3.25;;
5414;SDS011;2730;51.512;7.504;2023-12-20T10:47:56;7.80;;;3.15;;
5414;SDS011;2730;51.512;7.504;2023-12-20T10:50:26;5.15;;;3.10;;
5414;SDS011;2730;51.512;7.504;2023-12-20T10:52:54;6.32;;;3.95;;
5414;SDS011;2730;51.512;7.504;2023-12-20T10:55:23;5.35;;;3.50;;
5414;SDS011;2730;51.512;7.504;2023-12-20T10:57:51;4.10;;;3.30;;
5414;SDS011;2730;51.512;7.504;2023-12-20T11:00:22;9.25;;;3.50;;
5414;SDS011;2730;51.512;7.504;2023-12-20T11:02:49;8.57;;;2.97;;
5414;SDS011;2730;51.512;7.504;2023-12-20T11:05:24;12.70;;;4.82;;
5414;SDS011;2730;51.512;7.504;2023-12-20T11:08:03;7.45;;;3.00;;
5414;SDS011;2730;51.512;7.504;2023-12-20T11:10:36;10.00;;;3.00;;
5414;SDS011;2730;51.512;7.504;2023-12-20T11:13:10;21.92;;;5.70;;
5414;SDS011;2730;51.512;7.504;2023-12-20T11:15:44;14.15;;;4.10;;
5414;SDS011;2730;51.512;7.504;2023-12-20T11:18:13;6.15;;;3.65;;
5414;SDS011;2730;51.512;7.504;2023-12-20T11:20:44;10.15;;;4.05;;
5414;SDS011;2730;51.512;7.504;2023-12-20T11:23:11;21.52;;;3.70;;
5414;SDS011;2730;51.512;7.504;2023-12-20T11:25:47;8.10;;;4.20;;
5414;SDS011;2730;51.512;7.504;2023-12-20T11:28:20;9.23;;;3.67;;
5414;SDS011;2730;51.512;7.504;2023-12-20T11:30:50;11.73;;;3.70;;
5414;SDS011;2730;51.512;7.504;2023-12-20T11:33:21;10.30;;;4.22;;
5414;SDS011;2730;51.512;7.504;2023-12-20T11:35:49;11.77;;;4.63;;
5414;SDS011;2730;51.512;7.504;2023-12-20T11:38:16;3.30;;;3.00;;
5414;SDS011;2730;51.512;7.504;2023-12-20T11:40:47;14.85;;;3.75;;
5414;SDS011;2730;51.512;7.504;2023-12-20T11:43:29;4.20;;;3.47;;
5414;SDS011;2730;51.512;7.504;2023-12-20T11:45:59;6.18;;;3.47;;
5414;SDS011;2730;51.512;7.504;2023-12-20T11:48:30;11.15;;;4.40;;
5414;SDS011;2730;51.512;7.504;2023-12-20T11:50:57;12.48;;;4.20;;
5414;SDS011;2730;51.512;7.504;2023-12-20T11:53:25;12.88;;;2.60;;
5414;SDS011;2730;51.512;7.504;2023-12-20T11:55:51;17.90;;;3.78;;
5414;SDS011;2730;51.512;7.504;2023-12-20T11:58:20;16.63;;;4.85;;
5414;SDS011;2730;51.512;7.504;2023-12-20T12:00:49;7.15;;;2.92;;
5414;SDS011;2730;51.512;7.504;2023-12-20T12:03:18;9.95;;;3.25;;
5414;SDS011;2730;51.512;7.504;2023-12-20T12:05:46;14.18;;;3.53;;
5414;SDS011;2730;51.512;7.504;2023-12-20T12:08:13;7.30;;;3.70;;
5414;SDS011;2730;51.512;7.504;2023-12-20T12:10:40;9.80;;;4.15;;
5414;SDS011;2730;51.512;7.504;2023-12-20T12:13:07;18.17;;;5.15;;
5414;SDS011;2730;51.512;7.504;2023-12-20T12:15:34;9.00;;;3.38;;
5414;SDS011;2730;51.512;7.504;2023-12-20T12:18:02;9.35;;;3.25;;
5414;SDS011;2730;51.512;7.504;2023-12-20T12:20:31;10.27;;;4.13;;
5414;SDS011;2730;51.512;7.504;2023-12-20T12:23:00;6.45;;;4.07;;
5414;SDS011;2730;51.512;7.504;2023-12-20T12:25:28;7.35;;;4.00;;
5414;SDS011;2730;51.512;7.504;2023-12-20T12:27:56;5.28;;;3.20;;
5414;SDS011;2730;51.512;7.504;2023-12-20T12:30:23;12.93;;;3.95;;
5414;SDS011;2730;51.512;7.504;2023-12-20T12:32:51;9.15;;;4.43;;
5414;SDS011;2730;51.512;7.504;2023-12-20T12:35:18;9.60;;;4.00;;
5414;SDS011;2730;51.512;7.504;2023-12-20T12:37:46;10.75;;;4.72;;
5414;SDS011;2730;51.512;7.504;2023-12-20T12:40:14;8.05;;;3.80;;
5414;SDS011;2730;51.512;7.504;2023-12-20T12:42:42;17.48;;;4.28;;
5414;SDS011;2730;51.512;7.504;2023-12-20T12:45:09;13.73;;;4.22;;
5414;SDS011;2730;51.512;7.504;2023-12-20T12:47:37;7.80;;;4.18;;
5414;SDS011;2730;51.512;7.504;2023-12-20T12:50:05;35.00;;;5.00;;
5414;SDS011;2730;51.512;7.504;2023-12-20T12:52:32;9.52;;;4.90;;
5414;SDS011;2730;51.512;7.504;2023-12-20T12:55:01;9.57;;;5.20;;
5414;SDS011;2730;51.512;7.504;2023-12-20T12:57:29;14.60;;;6.43;;
5414;SDS011;2730;51.512;7.504;2023-12-20T12:59:58;8.20;;;4.78;;
5414;SDS011;2730;51.512;7.504;2023-12-20T13:02:25;7.22;;;4.65;;
5414;SDS011;2730;51.512;7.504;2023-12-20T13:04:53;10.05;;;5.28;;
5414;SDS011;2730;51.512;7.504;2023-12-20T13:07:20;15.80;;;4.38;;
5414;SDS011;2730;51.512;7.504;2023-12-20T13:09:47;17.92;;;5.72;;
5414;SDS011;2730;51.512;7.504;2023-12-20T13:12:15;15.00;;;5.57;;
5414;SDS011;2730;51.512;7.504;2023-12-20T13:14:42;9.23;;;4.70;;
5414;SDS011;2730;51.512;7.504;2023-12-20T13:17:10;13.50;;;4.55;;
5414;SDS011;2730;51.512;7.504;2023-12-20T13:19:37;27.90;;;6.05;;
5414;SDS011;2730;51.512;7.504;2023-12-20T13:22:04;7.80;;;4.55;;
5414;SDS011;2730;51.512;7.504;2023-12-20T13:24:31;10.95;;;4.70;;
5414;SDS011;2730;51.512;7.504;2023-12-20T13:26:58;6.10;;;4.55;;
5414;SDS011;2730;51.512;7.504;2023-12-20T13:29:29;8.95;;;4.40;;
5414;SDS011;2730;51.512;7.504;2023-12-20T13:31:56;17.33;;;4.18;;
5414;SDS011;2730;51.512;7.504;2023-12-20T13:34:23;10.10;;;5.10;;
5414;SDS011;2730;51.512;7.504;2023-12-20T13:36:51;13.57;;;4.25;;
5414;SDS011;2730;51.512;7.504;2023-12-20T13:39:21;8.88;;;5.25;;
5414;SDS011;2730;51.512;7.504;2023-12-20T13:41:48;16.23;;;4.50;;
5414;SDS011;2730;51.512;7.504;2023-12-20T13:44:15;10.57;;;4.28;;
5414;SDS011;2730;51.512;7.504;2023-12-20T13:46:43;8.98;;;4.47;;
5414;SDS011;2730;51.512;7.504;2023-12-20T13:49:10;11.93;;;4.85;;
5414;SDS011;2730;51.512;7.504;2023-12-20T13:51:38;9.07;;;4.35;;
5414;SDS011;2730;51.512;7.504;2023-12-20T13:54:05;14.07;;;4.97;;
5414;SDS011;2730;51.512;7.504;2023-12-20T13:56:32;9.23;;;4.88;;
5414;SDS011;2730;51.512;7.504;2023-12-20T13:58:59;8.77;;;4.82;;
5414;SDS011;2730;51.512;7.504;2023-12-20T14:01:26;16.85;;;5.63;;
5414;SDS011;2730;51.512;7.504;2023-12-20T14:03:54;9.77;;;4.00;;
5414;SDS011;2730;51.512;7.504;2023-12-20T14:06:21;15.95;;;4.80;;
5414;SDS011;2730;51.512;7.504;2023-12-20T14:08:47;8.23;;;5.03;;
5414;SDS011;2730;51.512;7.504;2023-12-20T14:11:14;21.70;;;5.13;;
5414;SDS011;2730;51.512;7.504;2023-12-20T14:13:41;9.75;;;4.32;;
5414;SDS011;2730;51.512;7.504;2023-12-20T14:16:08;5.25;;;3.65;;
5414;SDS011;2730;51.512;7.504;2023-12-20T14:18:35;5.22;;;3.72;;
5414;SDS011;2730;51.512;7.504;2023-12-20T14:21:04;5.68;;;2.90;;
5414;SDS011;2730;51.512;7.504;2023-12-20T14:23:31;6.80;;;4.18;;
5414;SDS011;2730;51.512;7.504;2023-12-20T14:25:59;6.78;;;3.75;;
5414;SDS011;2730;51.512;7.504;2023-12-20T14:28:27;6.15;;;3.45;;
5414;SDS011;2730;51.512;7.504;2023-12-20T14:30:56;6.10;;;4.43;;
5414;SDS011;2730;51.512;7.504;2023-12-20T14:33:23;18.33;;;5.32;;
5414;SDS011;2730;51.512;7.504;2023-12-20T14:35:50;6.68;;;4.93;;
5414;SDS011;2730;51.512;7.504;2023-12-20T14:38:18;3.97;;;3.55;;
5414;SDS011;2730;51.512;7.504;2023-12-20T14:40:45;15.70;;;5.57;;
5414;SDS011;2730;51.512;7.504;2023-12-20T14:43:12;7.13;;;3.92;;
5414;SDS011;2730;51.512;7.504;2023-12-20T14:45:39;12.55;;;4.85;;
5414;SDS011;2730;51.512;7.504;2023-12-20T14:48:07;12.00;;;4.30;;
5414;SDS011;2730;51.512;7.504;2023-12-20T14:50:34;6.20;;;3.40;;
5414;SDS011;2730;51.512;7.504;2023-12-20T14:53:01;8.88;;;3.42;;
5414;SDS011;2730;51.512;7.504;2023-12-20T14:55:30;8.15;;;3.55;;
5414;SDS011;2730;51.512;7.504;2023-12-20T14:57:57;8.13;;;4.00;;
5414;SDS011;2730;51.512;7.504;2023-12-20T15:00:23;8.55;;;4.38;;
5414;SDS011;2730;51.512;7.504;2023-12-20T15:02:50;6.60;;;4.05;;
5414;SDS011;2730;51.512;7.504;2023-12-20T15:05:19;8.13;;;3.95;;
5414;SDS011;2730;51.512;7.504;2023-12-20T15:07:45;8.65;;;4.35;;
5414;SDS011;2730;51.512;7.504;2023-12-20T15:10:13;7.78;;;4.05;;
5414;SDS011;2730;51.512;7.504;2023-12-20T15:12:44;10.82;;;4.15;;